createdAt,value
2022-11-12T00:00:47.249Z,10.50
2022-11-12T00:03:14.087Z,10.55
2022-11-12T00:05:40.723Z,10.00
2022-11-12T00:08:07.455Z,10.32
2022-11-12T00:10:34.171Z,10.18
2022-11-12T00:13:00.752Z,9.65
2022-11-12T00:15:27.764Z,9.45
2022-11-12T00:17:54.822Z,9.30
2022-11-12T00:20:21.400Z,11.52
2022-11-12T00:22:48.021Z,9.85
2022-11-12T00:25:14.715Z,9.88
2022-11-12T00:27:41.463Z,8.95
2022-11-12T00:30:10.412Z,9.48
2022-11-12T00:32:37.662Z,8.75
2022-11-12T00:35:06.843Z,8.07
2022-11-12T00:37:35.401Z,8.50
2022-11-12T00:40:01.994Z,7.60
2022-11-12T00:42:28.592Z,7.60
2022-11-12T00:44:55.420Z,8.63
2022-11-12T00:47:22.019Z,8.73
2022-11-12T00:49:48.758Z,9.25
2022-11-12T00:52:15.346Z,8.63
2022-11-12T00:54:41.940Z,9.20
2022-11-12T00:57:08.545Z,10.48
2022-11-12T00:59:35.237Z,9.75
2022-11-12T01:02:01.916Z,8.77
2022-11-12T01:04:28.510Z,7.93
2022-11-12T01:06:55.139Z,8.20
2022-11-12T01:09:21.776Z,8.98
2022-11-12T01:11:48.859Z,4.68
2022-11-12T01:14:15.536Z,6.28
2022-11-12T01:16:42.920Z,7.75
2022-11-12T01:19:11.925Z,6.80
2022-11-12T01:21:41.505Z,7.07
2022-11-12T01:24:08.789Z,6.68
2022-11-12T01:26:35.623Z,6.65
2022-11-12T01:29:02.353Z,5.70
2022-11-12T01:31:30.454Z,8.73
2022-11-12T01:34:00.044Z,7.65
2022-11-12T01:36:28.071Z,6.53
2022-11-12T01:38:55.737Z,8.07
2022-11-12T01:41:25.226Z,5.90
2022-11-12T01:44:21.800Z,6.82
2022-11-12T01:46:57.313Z,6.40
2022-11-12T01:49:35.816Z,5.50
2022-11-12T01:52:21.343Z,6.45
2022-11-12T01:54:52.459Z,7.18
2022-11-12T01:57:24.267Z,5.75
2022-11-12T01:59:54.072Z,4.10
2022-11-12T02:02:21.271Z,6.32
2022-11-12T02:04:49.482Z,4.40
2022-11-12T02:07:17.357Z,5.07
2022-11-12T02:09:44.059Z,3.97
2022-11-12T02:12:30.636Z,4.57
2022-11-12T02:14:57.434Z,5.68
2022-11-12T02:17:24.140Z,5.72
2022-11-12T02:19:52.726Z,4.97
2022-11-12T02:22:19.344Z,6.60
2022-11-12T02:24:45.987Z,6.47
2022-11-12T02:27:13.013Z,4.45
2022-11-12T02:29:46.129Z,5.68
2022-11-12T02:32:15.791Z,6.75
2022-11-12T02:34:42.360Z,7.18
2022-11-12T02:37:09.033Z,5.65
2022-11-12T02:39:35.634Z,6.63
2022-11-12T02:42:02.377Z,5.65
2022-11-12T02:44:30.810Z,6.05
2022-11-12T02:46:57.482Z,5.22
2022-11-12T02:49:24.088Z,6.95
2022-11-12T02:51:50.803Z,7.80
2022-11-12T02:54:17.445Z,4.30
2022-11-12T02:56:44.029Z,4.53
2022-11-12T02:59:10.622Z,5.35
2022-11-12T03:01:37.207Z,5.07
2022-11-12T03:04:03.953Z,6.15
2022-11-12T03:06:30.589Z,4.22
2022-11-12T03:08:57.168Z,5.93
2022-11-12T03:11:23.795Z,5.53
2022-11-12T03:13:50.423Z,4.55
2022-11-12T03:16:17.008Z,4.97
2022-11-12T03:18:43.574Z,5.63
2022-11-12T03:21:10.135Z,3.97
2022-11-12T03:23:36.801Z,5.93
2022-11-12T03:26:04.406Z,5.57
2022-11-12T03:28:31.122Z,4.97
2022-11-12T03:30:59.798Z,5.72
2022-11-12T03:33:26.661Z,5.70
2022-11-12T03:35:53.309Z,6.97
2022-11-12T03:38:19.922Z,5.15
2022-11-12T03:40:46.490Z,5.82
2022-11-12T03:43:13.145Z,5.35
2022-11-12T03:45:39.799Z,4.85
2022-11-12T03:48:06.648Z,5.57
2022-11-12T03:50:33.260Z,5.40
2022-11-12T03:53:00.334Z,5.20
2022-11-12T03:55:28.954Z,6.63
2022-11-12T03:57:56.968Z,5.03
2022-11-12T04:00:25.138Z,5.75
2022-11-12T04:02:51.764Z,5.20
2022-11-12T04:05:37.752Z,5.00
2022-11-12T04:08:42.904Z,4.70
2022-11-12T04:11:12.956Z,5.28
2022-11-12T04:13:41.948Z,4.85
2022-11-12T04:16:33.428Z,5.50
2022-11-12T04:19:20.442Z,4.72
2022-11-12T04:21:55.755Z,5.43
2022-11-12T04:24:47.112Z,4.85
2022-11-12T04:27:21.249Z,4.00
2022-11-12T04:30:07.401Z,5.47
2022-11-12T04:32:37.689Z,5.40
2022-11-12T04:35:05.996Z,5.50
2022-11-12T04:37:46.145Z,5.10
2022-11-12T04:40:37.768Z,6.35
2022-11-12T04:43:24.483Z,7.00
2022-11-12T04:45:53.605Z,4.50
2022-11-12T04:48:22.342Z,5.93
2022-11-12T04:50:55.426Z,5.35
2022-11-12T04:53:22.333Z,5.28
2022-11-12T04:55:53.322Z,7.05
2022-11-12T04:58:20.873Z,5.18
2022-11-12T05:00:48.127Z,5.72
2022-11-12T05:03:14.762Z,4.55
2022-11-12T05:05:41.540Z,6.38
2022-11-12T05:08:08.333Z,7.68
2022-11-12T05:13:28.210Z,7.85
2022-11-12T05:15:54.764Z,8.05
2022-11-12T05:18:21.364Z,10.98
2022-11-12T05:20:51.174Z,11.07
2022-11-12T05:23:17.913Z,13.18
2022-11-12T05:25:44.925Z,9.77
2022-11-12T05:28:11.651Z,7.07
2022-11-12T05:30:38.209Z,6.03
2022-11-12T05:33:04.898Z,5.93
2022-11-12T05:35:31.497Z,5.60
2022-11-12T05:37:58.598Z,5.20
2022-11-12T05:40:25.218Z,7.47
2022-11-12T05:42:52.000Z,6.60
2022-11-12T05:45:18.620Z,5.53
2022-11-12T05:47:45.378Z,5.57
2022-11-12T05:50:11.951Z,5.22
2022-11-12T05:52:38.556Z,5.75
2022-11-12T05:55:05.562Z,5.18
2022-11-12T05:57:32.178Z,4.68
2022-11-12T05:59:58.852Z,5.50
2022-11-12T06:02:25.493Z,5.60
2022-11-12T06:04:52.114Z,5.55
2022-11-12T06:07:18.781Z,4.47
2022-11-12T06:09:45.364Z,5.65
2022-11-12T06:12:11.971Z,6.88
2022-11-12T06:14:38.582Z,5.32
2022-11-12T06:17:05.180Z,7.43
2022-11-12T06:19:31.802Z,6.35
2022-11-12T06:21:58.429Z,5.72
2022-11-12T06:24:26.107Z,4.90
2022-11-12T06:26:55.016Z,5.70
2022-11-12T06:29:21.649Z,6.18
2022-11-12T06:31:48.212Z,5.70
2022-11-12T06:34:14.860Z,4.38
2022-11-12T06:36:41.550Z,5.72
2022-11-12T06:39:08.199Z,5.35
2022-11-12T06:41:34.756Z,6.28
2022-11-12T06:44:03.298Z,6.70
2022-11-12T06:46:29.941Z,7.38
2022-11-12T06:48:56.542Z,6.88
2022-11-12T06:51:23.214Z,6.50
2022-11-12T06:53:51.647Z,8.38
2022-11-12T06:56:18.507Z,6.60
2022-11-12T06:58:45.084Z,6.07
2022-11-12T07:01:14.714Z,5.93
2022-11-12T07:03:42.605Z,7.85
2022-11-12T07:06:12.491Z,7.45
2022-11-12T07:08:39.716Z,6.90
2022-11-12T07:11:07.536Z,6.75
2022-11-12T07:13:35.265Z,8.55
2022-11-12T07:16:03.326Z,7.97
2022-11-12T07:18:31.053Z,7.47
2022-11-12T07:21:02.567Z,12.00
2022-11-12T07:23:31.430Z,12.68
2022-11-12T07:26:03.974Z,10.00
2022-11-12T07:28:30.974Z,10.65
2022-11-12T07:30:59.457Z,10.55
2022-11-12T07:33:27.168Z,11.93
2022-11-12T07:36:02.380Z,11.35
2022-11-12T07:38:30.502Z,12.05
2022-11-12T07:41:06.149Z,12.80
2022-11-12T07:43:34.423Z,17.23
2022-11-12T07:46:10.491Z,19.08
2022-11-12T07:48:38.654Z,25.60
2022-11-12T07:51:26.788Z,26.48
2022-11-12T07:53:59.207Z,20.80
2022-11-12T07:56:27.517Z,20.85
2022-11-12T07:58:54.106Z,18.65
2022-11-12T08:01:33.785Z,14.93
2022-11-12T08:04:01.476Z,15.50
2022-11-12T08:06:29.344Z,13.98
2022-11-12T08:08:57.379Z,12.30
2022-11-12T08:11:24.338Z,12.50
2022-11-12T08:13:50.962Z,12.10
2022-11-12T08:16:17.756Z,12.85
2022-11-12T08:18:45.316Z,10.95
2022-11-12T08:21:14.520Z,11.52
2022-11-12T08:23:41.829Z,11.23
2022-11-12T08:26:13.012Z,11.70
2022-11-12T08:28:39.889Z,9.55
2022-11-12T08:31:11.353Z,9.15
2022-11-12T08:33:38.456Z,9.57
2022-11-12T08:36:07.412Z,10.27
2022-11-12T08:38:34.553Z,10.55
2022-11-12T08:41:02.528Z,10.65
2022-11-12T08:43:29.192Z,9.25
2022-11-12T08:45:58.460Z,10.52
2022-11-12T08:48:25.934Z,10.38
2022-11-12T08:50:53.576Z,10.77
2022-11-12T08:53:22.074Z,13.52
2022-11-12T08:55:48.840Z,10.23
2022-11-12T08:58:15.404Z,10.95
2022-11-12T09:00:43.773Z,11.82
2022-11-12T09:03:16.076Z,14.48
2022-11-12T09:08:18.143Z,24.83
2022-11-12T09:10:45.771Z,23.25
2022-11-12T09:13:14.001Z,23.73
2022-11-12T09:15:40.824Z,25.35
2022-11-12T09:18:12.340Z,23.13
2022-11-12T09:20:39.176Z,27.17
2022-11-12T09:23:16.185Z,20.30
2022-11-12T09:25:43.490Z,15.35
2022-11-12T09:28:14.810Z,14.60
2022-11-12T09:30:49.278Z,12.27
2022-11-12T09:33:18.111Z,12.50
2022-11-12T09:35:45.673Z,12.23
2022-11-12T09:38:14.801Z,13.68
2022-11-12T09:40:47.333Z,16.80
2022-11-12T09:43:29.272Z,31.88
2022-11-12T09:46:26.607Z,24.02
2022-11-12T09:49:18.603Z,14.98
2022-11-12T09:52:00.269Z,11.15
2022-11-12T09:54:30.691Z,11.07
2022-11-12T09:56:57.375Z,9.23
2022-11-12T09:59:29.466Z,8.82
2022-11-12T10:02:23.366Z,9.90
2022-11-12T10:05:11.139Z,9.00
2022-11-12T10:07:54.193Z,8.63
2022-11-12T10:10:48.024Z,11.20
2022-11-12T10:13:34.814Z,9.00
2022-11-12T10:16:30.258Z,10.57
2022-11-12T10:19:24.798Z,9.23
2022-11-12T10:22:22.358Z,8.73
2022-11-12T10:24:49.443Z,9.73
2022-11-12T10:27:20.934Z,8.20
2022-11-12T10:29:59.473Z,9.17
2022-11-12T10:32:26.046Z,8.02
2022-11-12T10:34:52.629Z,9.13
2022-11-12T10:37:31.123Z,8.52
2022-11-12T10:39:57.727Z,9.70
2022-11-12T10:42:24.346Z,11.32
2022-11-12T10:44:51.838Z,8.38
2022-11-12T10:47:38.600Z,8.55
2022-11-12T10:50:34.385Z,10.05
2022-11-12T10:53:03.774Z,9.30
2022-11-12T10:55:34.446Z,8.43
2022-11-12T10:58:16.568Z,6.45
2022-11-12T11:01:12.880Z,9.57
2022-11-12T11:03:51.282Z,7.57
2022-11-12T11:06:21.582Z,8.48
2022-11-12T11:08:53.040Z,7.95
2022-11-12T11:11:30.456Z,7.03
2022-11-12T11:14:31.642Z,9.60
2022-11-12T11:17:01.582Z,6.95
2022-11-12T11:19:36.486Z,6.38
2022-11-12T11:22:12.952Z,7.72
2022-11-12T11:24:45.475Z,9.50
2022-11-12T11:27:30.515Z,9.55
2022-11-12T11:30:06.061Z,8.10
2022-11-12T11:33:11.247Z,8.02
2022-11-12T11:36:07.092Z,8.10
2022-11-12T11:38:36.567Z,10.00
2022-11-12T11:41:41.343Z,9.30
2022-11-12T11:44:28.668Z,6.97
2022-11-12T11:47:11.310Z,8.38
2022-11-12T11:52:32.758Z,9.00
2022-11-12T11:55:05.384Z,9.43
2022-11-12T11:58:02.791Z,9.05
2022-11-12T12:00:49.732Z,10.57
2022-11-12T12:03:21.389Z,8.23
2022-11-12T12:05:59.916Z,9.70
2022-11-12T12:08:47.455Z,9.50
2022-11-12T12:11:26.660Z,9.43
2022-11-12T12:14:02.026Z,9.00
2022-11-12T12:17:10.454Z,11.20
2022-11-12T12:19:45.608Z,9.27
2022-11-12T12:22:17.456Z,9.30
2022-11-12T12:24:50.452Z,9.45
2022-11-12T12:27:22.692Z,8.13
2022-11-12T12:30:03.582Z,9.75
2022-11-12T12:32:35.377Z,9.88
2022-11-12T12:35:26.423Z,7.60
2022-11-12T12:37:53.020Z,9.05
2022-11-12T12:40:24.981Z,7.07
2022-11-12T12:42:59.682Z,9.32
2022-11-12T12:45:45.733Z,9.45
2022-11-12T12:48:24.993Z,8.73
2022-11-12T12:50:53.221Z,9.65
2022-11-12T12:53:22.550Z,7.18
2022-11-12T12:55:51.598Z,8.18
2022-11-12T12:58:24.661Z,9.85
2022-11-12T13:01:02.120Z,10.00
2022-11-12T13:03:44.305Z,9.27
2022-11-12T13:06:51.252Z,9.07
2022-11-12T13:09:17.853Z,10.98
2022-11-12T13:12:02.864Z,12.90
2022-11-12T13:14:35.016Z,14.00
2022-11-12T13:17:08.386Z,13.75
2022-11-12T13:19:36.729Z,10.57
2022-11-12T13:22:20.491Z,11.90
2022-11-12T13:25:12.158Z,9.30
2022-11-12T13:27:44.992Z,10.25
2022-11-12T13:30:14.567Z,11.13
2022-11-12T13:32:53.942Z,13.90
2022-11-12T13:35:23.498Z,13.35
2022-11-12T13:38:02.996Z,13.75
2022-11-12T13:40:29.565Z,13.90
2022-11-12T13:43:14.912Z,12.85
2022-11-12T13:45:44.837Z,12.30
2022-11-12T13:48:26.937Z,12.48
2022-11-12T13:51:02.950Z,12.95
2022-11-12T13:53:32.001Z,11.57
2022-11-12T13:55:58.809Z,13.43
2022-11-12T13:58:26.928Z,11.85
2022-11-12T14:01:05.430Z,11.18
2022-11-12T14:03:52.020Z,10.80
2022-11-12T14:06:36.272Z,11.82
2022-11-12T14:09:40.468Z,10.13
2022-11-12T14:12:11.974Z,13.68
2022-11-12T14:15:10.536Z,12.17
2022-11-12T14:17:47.764Z,11.75
2022-11-12T14:20:30.575Z,13.40
2022-11-12T14:23:08.611Z,11.73
2022-11-12T14:25:45.530Z,12.93
2022-11-12T14:28:34.175Z,9.68
2022-11-12T14:31:03.533Z,12.18
2022-11-12T14:33:32.096Z,13.05
2022-11-12T14:36:16.610Z,11.32
2022-11-12T14:38:56.013Z,11.88
2022-11-12T14:41:33.263Z,10.18
2022-11-12T14:44:12.782Z,11.35
2022-11-12T14:46:47.881Z,12.05
2022-11-12T14:49:20.348Z,12.05
2022-11-12T14:51:51.270Z,12.90
2022-11-12T14:54:29.784Z,12.50
2022-11-12T14:56:57.335Z,11.45
2022-11-12T14:59:24.196Z,12.65
2022-11-12T15:02:52.247Z,13.63
2022-11-12T15:05:23.376Z,15.05
2022-11-12T15:07:56.679Z,14.55
2022-11-12T15:10:41.217Z,12.77
2022-11-12T15:13:17.680Z,14.27
2022-11-12T15:16:00.353Z,13.65
2022-11-12T15:18:29.441Z,15.95
2022-11-12T15:21:22.764Z,14.98
2022-11-12T15:23:52.082Z,13.88
2022-11-12T15:26:37.410Z,14.48
2022-11-12T15:29:10.201Z,14.73
2022-11-12T15:31:47.376Z,13.90
2022-11-12T15:34:27.736Z,13.60
2022-11-12T15:36:57.188Z,13.63
2022-11-12T15:39:25.741Z,13.23
2022-11-12T15:42:01.143Z,13.35
2022-11-12T15:44:33.661Z,12.68
2022-11-12T15:47:01.381Z,11.80
2022-11-12T15:49:28.114Z,13.50
2022-11-12T15:51:54.699Z,13.55
2022-11-12T15:54:21.288Z,14.15
2022-11-12T15:56:48.205Z,15.60
2022-11-12T15:59:17.129Z,13.25
2022-11-12T16:01:44.185Z,16.05
2022-11-12T16:04:12.652Z,15.10
2022-11-12T16:06:39.259Z,14.93
2022-11-12T16:09:05.956Z,15.27
2022-11-12T16:11:35.502Z,14.93
2022-11-12T16:14:04.508Z,14.77
2022-11-12T16:16:32.100Z,15.30
2022-11-12T16:18:58.701Z,16.80
2022-11-12T16:21:25.287Z,16.13
2022-11-12T16:23:52.053Z,14.63
2022-11-12T16:26:27.886Z,13.18
2022-11-12T16:28:54.582Z,13.75
2022-11-12T16:31:21.810Z,15.80
2022-11-12T16:33:48.402Z,18.15
2022-11-12T16:36:16.157Z,15.60
2022-11-12T16:38:43.110Z,17.75
2022-11-12T16:41:11.864Z,16.10
2022-11-12T16:43:39.262Z,16.38
2022-11-12T16:46:26.142Z,18.75
2022-11-12T16:48:53.746Z,14.70
2022-11-12T16:51:21.699Z,19.30
2022-11-12T16:53:48.640Z,18.52
2022-11-12T16:56:20.696Z,24.00
2022-11-12T16:58:48.499Z,26.75
2022-11-12T17:01:30.191Z,25.80
2022-11-12T17:03:58.406Z,22.57
2022-11-12T17:07:01.766Z,26.13
2022-11-12T17:09:28.464Z,24.63
2022-11-12T17:11:55.055Z,23.75
2022-11-12T17:14:26.979Z,36.67
2022-11-12T17:16:54.836Z,32.25
2022-11-12T17:19:21.441Z,26.13
2022-11-12T17:21:48.243Z,25.23
2022-11-12T17:24:14.923Z,25.33
2022-11-12T17:26:41.559Z,26.13
2022-11-12T17:29:08.671Z,23.70
2022-11-12T17:31:35.582Z,26.30
2022-11-12T17:34:05.309Z,23.25
2022-11-12T17:36:32.629Z,22.20
2022-11-12T17:39:00.552Z,22.15
2022-11-12T17:41:30.978Z,25.50
2022-11-12T17:43:59.294Z,25.70
2022-11-12T17:46:26.046Z,20.73
2022-11-12T17:48:53.034Z,17.90
2022-11-12T17:51:22.139Z,19.88
2022-11-12T17:53:48.972Z,16.60
2022-11-12T17:56:20.855Z,14.68
2022-11-12T17:58:49.267Z,17.80
2022-11-12T18:01:21.780Z,18.40
2022-11-12T18:03:51.835Z,19.52
2022-11-12T18:06:25.808Z,20.25
2022-11-12T18:09:17.027Z,18.85
2022-11-12T18:11:46.908Z,21.73
2022-11-12T18:14:14.220Z,26.63
2022-11-12T18:16:41.552Z,31.67
2022-11-12T18:19:12.479Z,30.25
2022-11-12T18:21:40.217Z,28.42
2022-11-12T18:24:07.916Z,28.52
2022-11-12T18:26:34.859Z,25.83
2022-11-12T18:29:01.496Z,30.63
2022-11-12T18:31:28.740Z,28.92
2022-11-12T18:33:56.088Z,35.08
2022-11-12T18:36:25.132Z,35.33
2022-11-12T18:38:53.141Z,30.45
2022-11-12T18:41:25.528Z,30.23
2022-11-12T18:43:56.008Z,30.15
2022-11-12T18:46:23.047Z,32.65
2022-11-12T18:48:49.927Z,29.98
2022-11-12T18:51:19.146Z,30.38
2022-11-12T18:53:46.449Z,31.55
2022-11-12T18:56:18.698Z,35.70
2022-11-12T19:01:17.504Z,21.92
2022-11-12T19:03:44.348Z,20.27
2022-11-12T19:06:15.193Z,21.98
2022-11-12T19:08:42.198Z,16.73
2022-11-12T19:11:14.059Z,17.30
2022-11-12T19:13:41.320Z,15.13
2022-11-12T19:16:11.610Z,15.00
2022-11-12T19:18:39.889Z,17.95
2022-11-12T19:21:09.120Z,16.35
2022-11-12T19:23:35.737Z,19.67
2022-11-12T19:26:07.414Z,22.42
2022-11-12T19:28:36.908Z,26.20
2022-11-12T19:31:10.542Z,23.98
2022-11-12T19:33:37.150Z,24.02
2022-11-12T19:36:08.656Z,22.85
2022-11-12T19:38:35.456Z,22.50
2022-11-12T19:41:14.709Z,24.73
2022-11-12T19:46:11.633Z,16.75
2022-11-12T19:48:38.815Z,16.30
2022-11-12T19:51:07.128Z,16.67
2022-11-12T19:53:35.344Z,17.60
2022-11-12T19:56:03.814Z,18.52
2022-11-12T19:58:34.105Z,29.90
2022-11-12T20:01:12.446Z,33.45
2022-11-12T20:03:39.801Z,33.00
2022-11-12T20:06:12.475Z,35.60
2022-11-12T20:08:39.253Z,32.53
2022-11-12T20:11:06.364Z,34.33
2022-11-12T20:13:33.166Z,29.35
2022-11-12T20:16:04.854Z,32.58
2022-11-12T20:18:31.445Z,27.75
2022-11-12T20:20:58.077Z,29.73
2022-11-12T20:23:26.074Z,31.58
2022-11-12T20:25:53.170Z,42.88
2022-11-12T20:28:19.976Z,42.40
2022-11-12T20:30:46.866Z,43.65
2022-11-12T20:33:14.144Z,29.45
2022-11-12T20:35:40.753Z,22.88
2022-11-12T20:38:07.426Z,21.50
2022-11-12T20:40:34.089Z,23.85
2022-11-12T20:43:00.738Z,21.98
2022-11-12T20:45:27.360Z,22.83
2022-11-12T20:47:56.053Z,22.83
2022-11-12T20:50:22.820Z,30.80
2022-11-12T20:52:49.563Z,32.00
2022-11-12T20:55:16.189Z,36.90
2022-11-12T20:57:42.804Z,64.07
2022-11-12T21:00:13.750Z,69.68
2022-11-12T21:02:41.581Z,39.58
2022-11-12T21:05:08.363Z,33.10
2022-11-12T21:07:35.070Z,27.38
2022-11-12T21:10:01.789Z,23.63
2022-11-12T21:12:28.443Z,24.85
2022-11-12T21:14:55.105Z,24.25
2022-11-12T21:17:21.756Z,23.23
2022-11-12T21:19:48.337Z,21.35
2022-11-12T21:22:15.508Z,16.77
2022-11-12T21:24:42.161Z,16.42
2022-11-12T21:27:11.259Z,16.23
2022-11-12T21:29:38.024Z,16.73
2022-11-12T21:32:04.776Z,16.95
2022-11-12T21:34:31.509Z,16.02
2022-11-12T21:36:58.077Z,15.43
2022-11-12T21:39:24.707Z,17.00
2022-11-12T21:41:53.777Z,17.65
2022-11-12T21:44:20.759Z,17.52
2022-11-12T21:46:47.325Z,15.88
2022-11-12T21:49:13.939Z,22.38
2022-11-12T21:51:40.595Z,24.63
2022-11-12T21:54:07.712Z,22.25
2022-11-12T21:56:34.482Z,22.95
2022-11-12T21:59:03.817Z,20.67
2022-11-12T22:01:33.363Z,16.55
2022-11-12T22:04:00.389Z,14.93
2022-11-12T22:06:29.561Z,19.98
2022-11-12T22:08:57.693Z,18.92
2022-11-12T22:11:27.520Z,16.42
2022-11-12T22:13:54.130Z,17.08
2022-11-12T22:16:26.452Z,14.50
2022-11-12T22:21:23.257Z,11.27
2022-11-12T22:23:50.189Z,15.00
2022-11-12T22:26:24.683Z,15.90
2022-11-12T22:28:52.756Z,16.75
2022-11-12T22:31:22.016Z,17.92
2022-11-12T22:33:49.817Z,16.23
2022-11-12T22:36:20.271Z,15.80
2022-11-12T22:38:48.770Z,17.27
2022-11-12T22:41:20.786Z,17.58
2022-11-12T22:43:51.188Z,15.93
2022-11-12T22:46:20.533Z,14.77
2022-11-12T22:48:47.404Z,15.70
2022-11-12T22:51:17.800Z,14.88
2022-11-12T22:53:44.667Z,16.08
2022-11-12T22:56:13.849Z,14.23
2022-11-12T22:58:43.047Z,16.23
2022-11-12T23:01:31.724Z,15.95
2022-11-12T23:04:00.510Z,16.90
2022-11-12T23:06:28.492Z,16.98
2022-11-12T23:08:56.444Z,16.75
2022-11-12T23:11:26.030Z,18.38
2022-11-12T23:13:54.019Z,15.93
2022-11-12T23:16:27.207Z,18.08
2022-11-12T23:18:54.799Z,18.25
2022-11-12T23:21:24.844Z,15.88
2022-11-12T23:23:51.730Z,17.73
2022-11-12T23:26:23.001Z,18.40
2022-11-12T23:28:49.829Z,20.17
2022-11-12T23:31:21.627Z,18.42
2022-11-12T23:33:50.593Z,20.13
2022-11-12T23:36:17.816Z,17.85
2022-11-12T23:38:44.689Z,18.48
2022-11-12T23:41:13.664Z,16.88
2022-11-12T23:43:40.556Z,20.33
2022-11-12T23:46:07.182Z,18.05
2022-11-12T23:48:33.844Z,18.38
2022-11-12T23:51:03.396Z,18.20
2022-11-12T23:53:30.713Z,15.45
2022-11-12T23:55:57.417Z,19.70
2022-11-12T23:58:24.052Z,20.70
